sensor_id;sensor_type;location;lat;lon;timestamp;temperature;humidity
17331;DHT22;8783;52.448;4.638;2022-07-03T00:01:18;23.00;96.00
17331;DHT22;8783;52.448;4.638;2022-07-03T00:03:44;23.00;96.20
17331;DHT22;8783;52.448;4.638;2022-07-03T00:06:10;23.00;96.20
17331;DHT22;8783;52.448;4.638;2022-07-03T00:08:36;23.00;95.60
17331;DHT22;8783;52.448;4.638;2022-07-03T00:11:03;23.00;95.80
17331;DHT22;8783;52.448;4.638;2022-07-03T00:13:28;23.00;96.00
17331;DHT22;8783;52.448;4.638;2022-07-03T00:15:54;23.00;95.60
17331;DHT22;8783;52.448;4.638;2022-07-03T00:18:20;23.00;95.60
17331;DHT22;8783;52.448;4.638;2022-07-03T00:20:48;23.00;95.60
17331;DHT22;8783;52.448;4.638;2022-07-03T00:23:18;23.00;96.10
17331;DHT22;8783;52.448;4.638;2022-07-03T00:25:44;23.00;95.80
17331;DHT22;8783;52.448;4.638;2022-07-03T00:28:10;23.00;96.20
17331;DHT22;8783;52.448;4.638;2022-07-03T00:30:36;23.00;96.10
17331;DHT22;8783;52.448;4.638;2022-07-03T00:33:03;23.00;95.90
17331;DHT22;8783;52.448;4.638;2022-07-03T00:35:32;23.00;96.10
17331;DHT22;8783;52.448;4.638;2022-07-03T00:37:59;23.00;95.70
17331;DHT22;8783;52.448;4.638;2022-07-03T00:40:24;23.00;95.70
17331;DHT22;8783;52.448;4.638;2022-07-03T00:42:50;23.00;95.70
17331;DHT22;8783;52.448;4.638;2022-07-03T00:45:20;23.00;95.70
17331;DHT22;8783;52.448;4.638;2022-07-03T00:47:47;22.90;95.70
17331;DHT22;8783;52.448;4.638;2022-07-03T00:50:13;22.90;95.60
17331;DHT22;8783;52.448;4.638;2022-07-03T00:52:45;22.90;95.80
17331;DHT22;8783;52.448;4.638;2022-07-03T00:55:15;22.90;95.30
17331;DHT22;8783;52.448;4.638;2022-07-03T00:57:45;22.90;95.60
17331;DHT22;8783;52.448;4.638;2022-07-03T01:00:12;22.90;95.30
17331;DHT22;8783;52.448;4.638;2022-07-03T01:02:40;22.90;95.60
17331;DHT22;8783;52.448;4.638;2022-07-03T01:10:31;22.90;95.70
17331;DHT22;8783;52.448;4.638;2022-07-03T01:13:07;22.90;95.80
17331;DHT22;8783;52.448;4.638;2022-07-03T01:16:06;22.90;95.30
17331;DHT22;8783;52.448;4.638;2022-07-03T01:18:49;22.90;95.20
17331;DHT22;8783;52.448;4.638;2022-07-03T01:21:35;22.90;95.30
17331;DHT22;8783;52.448;4.638;2022-07-03T01:26:50;22.90;95.60
17331;DHT22;8783;52.448;4.638;2022-07-03T01:29:30;22.90;95.60
17331;DHT22;8783;52.448;4.638;2022-07-03T01:31:58;22.90;95.70
17331;DHT22;8783;52.448;4.638;2022-07-03T01:34:25;22.90;96.00
17331;DHT22;8783;52.448;4.638;2022-07-03T01:36:54;22.90;96.10
17331;DHT22;8783;52.448;4.638;2022-07-03T01:39:26;22.90;95.60
17331;DHT22;8783;52.448;4.638;2022-07-03T01:41:53;22.90;95.50
17331;DHT22;8783;52.448;4.638;2022-07-03T01:44:24;22.90;95.60
17331;DHT22;8783;52.448;4.638;2022-07-03T01:46:52;22.90;95.40
17331;DHT22;8783;52.448;4.638;2022-07-03T01:49:19;22.90;95.60
17331;DHT22;8783;52.448;4.638;2022-07-03T01:51:46;22.90;95.40
17331;DHT22;8783;52.448;4.638;2022-07-03T01:54:14;22.90;95.40
17331;DHT22;8783;52.448;4.638;2022-07-03T01:56:40;22.90;95.40
17331;DHT22;8783;52.448;4.638;2022-07-03T01:59:06;22.80;95.40
17331;DHT22;8783;52.448;4.638;2022-07-03T02:01:48;22.80;95.50
17331;DHT22;8783;52.448;4.638;2022-07-03T02:04:33;22.80;96.00
17331;DHT22;8783;52.448;4.638;2022-07-03T02:07:05;22.80;95.90
17331;DHT22;8783;52.448;4.638;2022-07-03T02:10:11;22.80;96.10
17331;DHT22;8783;52.448;4.638;2022-07-03T02:12:48;22.80;96.00
17331;DHT22;8783;52.448;4.638;2022-07-03T02:15:38;22.80;96.30
17331;DHT22;8783;52.448;4.638;2022-07-03T02:21:13;22.80;96.10
17331;DHT22;8783;52.448;4.638;2022-07-03T02:23:49;22.80;95.70
17331;DHT22;8783;52.448;4.638;2022-07-03T02:26:21;22.80;95.80
17331;DHT22;8783;52.448;4.638;2022-07-03T02:28:58;22.80;95.90
17331;DHT22;8783;52.448;4.638;2022-07-03T02:31:24;22.80;96.00
17331;DHT22;8783;52.448;4.638;2022-07-03T02:33:55;22.80;96.10
17331;DHT22;8783;52.448;4.638;2022-07-03T02:36:32;22.80;96.10
17331;DHT22;8783;52.448;4.638;2022-07-03T02:38:59;22.80;96.10
17331;DHT22;8783;52.448;4.638;2022-07-03T02:41:36;22.80;96.10
17331;DHT22;8783;52.448;4.638;2022-07-03T02:44:08;22.80;96.10
17331;DHT22;8783;52.448;4.638;2022-07-03T02:49:42;22.80;96.20
17331;DHT22;8783;52.448;4.638;2022-07-03T02:55:04;22.80;96.30
17331;DHT22;8783;52.448;4.638;2022-07-03T02:57:40;22.80;96.40
17331;DHT22;8783;52.448;4.638;2022-07-03T03:00:11;22.80;96.30
17331;DHT22;8783;52.448;4.638;2022-07-03T03:02:56;22.80;96.40
17331;DHT22;8783;52.448;4.638;2022-07-03T03:05:37;22.80;96.50
17331;DHT22;8783;52.448;4.638;2022-07-03T03:11:00;22.80;96.50
17331;DHT22;8783;52.448;4.638;2022-07-03T03:13:30;22.80;96.70
17331;DHT22;8783;52.448;4.638;2022-07-03T03:16:08;22.80;96.80
17331;DHT22;8783;52.448;4.638;2022-07-03T03:18:39;22.80;96.80
17331;DHT22;8783;52.448;4.638;2022-07-03T03:21:18;22.80;96.90
17331;DHT22;8783;52.448;4.638;2022-07-03T03:23:49;22.80;96.90
17331;DHT22;8783;52.448;4.638;2022-07-03T03:26:21;22.80;96.60
17331;DHT22;8783;52.448;4.638;2022-07-03T03:28:48;22.80;96.80
17331;DHT22;8783;52.448;4.638;2022-07-03T03:31:14;22.80;96.70
17331;DHT22;8783;52.448;4.638;2022-07-03T03:33:46;22.80;96.90
17331;DHT22;8783;52.448;4.638;2022-07-03T03:36:18;22.70;97.00
17331;DHT22;8783;52.448;4.638;2022-07-03T03:38:45;22.70;97.10
17331;DHT22;8783;52.448;4.638;2022-07-03T03:41:11;22.70;97.10
17331;DHT22;8783;52.448;4.638;2022-07-03T03:43:37;22.70;97.20
17331;DHT22;8783;52.448;4.638;2022-07-03T03:46:06;22.70;97.20
17331;DHT22;8783;52.448;4.638;2022-07-03T03:48:32;22.70;97.20
17331;DHT22;8783;52.448;4.638;2022-07-03T03:50:59;22.70;97.20
17331;DHT22;8783;52.448;4.638;2022-07-03T03:53:26;22.70;97.10
17331;DHT22;8783;52.448;4.638;2022-07-03T03:56:04;22.70;97.10
17331;DHT22;8783;52.448;4.638;2022-07-03T03:58:33;22.70;97.30
17331;DHT22;8783;52.448;4.638;2022-07-03T04:01:00;22.70;97.20
17331;DHT22;8783;52.448;4.638;2022-07-03T04:03:28;22.70;97.20
17331;DHT22;8783;52.448;4.638;2022-07-03T04:05:54;22.70;97.40
17331;DHT22;8783;52.448;4.638;2022-07-03T04:08:21;22.70;97.40
17331;DHT22;8783;52.448;4.638;2022-07-03T04:10:47;22.70;97.40
17331;DHT22;8783;52.448;4.638;2022-07-03T04:13:14;22.70;97.50
17331;DHT22;8783;52.448;4.638;2022-07-03T04:15:40;22.70;97.30
17331;DHT22;8783;52.448;4.638;2022-07-03T04:18:06;22.70;97.60
17331;DHT22;8783;52.448;4.638;2022-07-03T04:20:32;22.70;97.60
17331;DHT22;8783;52.448;4.638;2022-07-03T04:22:58;22.70;97.60
17331;DHT22;8783;52.448;4.638;2022-07-03T04:25:24;22.70;97.70
17331;DHT22;8783;52.448;4.638;2022-07-03T04:27:50;22.70;97.80
17331;DHT22;8783;52.448;4.638;2022-07-03T04:30:16;22.60;97.80
17331;DHT22;8783;52.448;4.638;2022-07-03T04:32:42;22.60;97.90
17331;DHT22;8783;52.448;4.638;2022-07-03T04:35:08;22.60;97.90
17331;DHT22;8783;52.448;4.638;2022-07-03T04:37:36;22.60;98.00
17331;DHT22;8783;52.448;4.638;2022-07-03T04:40:03;22.70;98.10
17331;DHT22;8783;52.448;4.638;2022-07-03T04:42:29;22.60;98.10
17331;DHT22;8783;52.448;4.638;2022-07-03T04:44:54;22.60;98.30
17331;DHT22;8783;52.448;4.638;2022-07-03T04:47:20;22.70;98.40
17331;DHT22;8783;52.448;4.638;2022-07-03T04:49:46;22.70;98.40
17331;DHT22;8783;52.448;4.638;2022-07-03T04:52:12;22.60;98.40
17331;DHT22;8783;52.448;4.638;2022-07-03T04:54:42;22.60;98.40
17331;DHT22;8783;52.448;4.638;2022-07-03T04:57:08;22.60;98.50
17331;DHT22;8783;52.448;4.638;2022-07-03T04:59:33;22.60;98.70
17331;DHT22;8783;52.448;4.638;2022-07-03T05:01:59;22.70;98.60
17331;DHT22;8783;52.448;4.638;2022-07-03T05:04:24;22.70;98.80
17331;DHT22;8783;52.448;4.638;2022-07-03T05:06:50;22.60;98.80
17331;DHT22;8783;52.448;4.638;2022-07-03T05:09:18;22.60;98.90
17331;DHT22;8783;52.448;4.638;2022-07-03T05:11:44;22.60;98.90
17331;DHT22;8783;52.448;4.638;2022-07-03T05:14:10;22.70;99.00
17331;DHT22;8783;52.448;4.638;2022-07-03T05:16:36;22.60;98.90
17331;DHT22;8783;52.448;4.638;2022-07-03T05:19:02;22.70;99.00
17331;DHT22;8783;52.448;4.638;2022-07-03T05:21:27;22.60;99.10
17331;DHT22;8783;52.448;4.638;2022-07-03T05:23:53;22.70;99.20
17331;DHT22;8783;52.448;4.638;2022-07-03T05:26:19;22.70;99.00
17331;DHT22;8783;52.448;4.638;2022-07-03T05:28:45;22.70;99.20
17331;DHT22;8783;52.448;4.638;2022-07-03T05:31:11;22.70;99.40
17331;DHT22;8783;52.448;4.638;2022-07-03T05:33:36;22.70;99.30
17331;DHT22;8783;52.448;4.638;2022-07-03T05:36:04;22.70;99.30
17331;DHT22;8783;52.448;4.638;2022-07-03T05:38:31;22.70;99.40
17331;DHT22;8783;52.448;4.638;2022-07-03T05:41:15;22.70;99.40
17331;DHT22;8783;52.448;4.638;2022-07-03T05:43:41;22.60;99.60
17331;DHT22;8783;52.448;4.638;2022-07-03T05:46:06;22.70;99.60
17331;DHT22;8783;52.448;4.638;2022-07-03T05:48:32;22.70;99.80
17331;DHT22;8783;52.448;4.638;2022-07-03T05:50:58;22.60;99.70
17331;DHT22;8783;52.448;4.638;2022-07-03T05:53:24;22.70;99.70
17331;DHT22;8783;52.448;4.638;2022-07-03T05:55:49;22.70;99.80
17331;DHT22;8783;52.448;4.638;2022-07-03T05:58:15;22.60;99.80
17331;DHT22;8783;52.448;4.638;2022-07-03T06:00:41;22.60;99.90
17331;DHT22;8783;52.448;4.638;2022-07-03T06:03:07;22.70;99.80
17331;DHT22;8783;52.448;4.638;2022-07-03T06:05:33;22.80;99.70
17331;DHT22;8783;52.448;4.638;2022-07-03T06:07:59;23.30;99.40
17331;DHT22;8783;52.448;4.638;2022-07-03T06:10:26;23.20;99.60
17331;DHT22;8783;52.448;4.638;2022-07-03T06:12:52;23.00;99.50
17331;DHT22;8783;52.448;4.638;2022-07-03T06:15:18;23.00;99.70
17331;DHT22;8783;52.448;4.638;2022-07-03T06:17:44;23.20;99.90
17331;DHT22;8783;52.448;4.638;2022-07-03T06:20:11;23.50;99.50
17331;DHT22;8783;52.448;4.638;2022-07-03T06:22:37;23.40;99.40
17331;DHT22;8783;52.448;4.638;2022-07-03T06:25:04;23.20;99.60
17331;DHT22;8783;52.448;4.638;2022-07-03T06:27:29;23.10;99.70
17331;DHT22;8783;52.448;4.638;2022-07-03T06:29:55;23.00;99.90
17331;DHT22;8783;52.448;4.638;2022-07-03T06:32:21;23.00;99.90
17331;DHT22;8783;52.448;4.638;2022-07-03T06:34:47;23.00;99.90
17331;DHT22;8783;52.448;4.638;2022-07-03T06:37:13;22.90;99.90
17331;DHT22;8783;52.448;4.638;2022-07-03T06:39:38;22.90;99.80
17331;DHT22;8783;52.448;4.638;2022-07-03T06:42:04;22.90;99.90
17331;DHT22;8783;52.448;4.638;2022-07-03T06:44:30;22.90;99.90
17331;DHT22;8783;52.448;4.638;2022-07-03T06:46:56;22.90;99.90
17331;DHT22;8783;52.448;4.638;2022-07-03T06:49:22;22.90;99.90
17331;DHT22;8783;52.448;4.638;2022-07-03T06:51:51;22.90;99.90
17331;DHT22;8783;52.448;4.638;2022-07-03T06:54:19;22.90;99.90
17331;DHT22;8783;52.448;4.638;2022-07-03T06:56:45;22.90;99.90
17331;DHT22;8783;52.448;4.638;2022-07-03T06:59:10;22.90;99.90
17331;DHT22;8783;52.448;4.638;2022-07-03T07:01:36;23.00;99.80
17331;DHT22;8783;52.448;4.638;2022-07-03T07:04:02;22.90;99.70
17331;DHT22;8783;52.448;4.638;2022-07-03T07:06:28;22.90;99.70
17331;DHT22;8783;52.448;4.638;2022-07-03T07:08:54;22.90;99.90
17331;DHT22;8783;52.448;4.638;2022-07-03T07:11:19;22.90;99.80
17331;DHT22;8783;52.448;4.638;2022-07-03T07:13:45;22.90;99.60
17331;DHT22;8783;52.448;4.638;2022-07-03T07:16:11;22.90;99.70
17331;DHT22;8783;52.448;4.638;2022-07-03T07:18:36;22.90;99.70
17331;DHT22;8783;52.448;4.638;2022-07-03T07:21:02;22.90;99.50
17331;DHT22;8783;52.448;4.638;2022-07-03T07:23:30;22.90;99.40
17331;DHT22;8783;52.448;4.638;2022-07-03T07:25:56;22.90;99.40
17331;DHT22;8783;52.448;4.638;2022-07-03T07:28:22;22.90;99.40
17331;DHT22;8783;52.448;4.638;2022-07-03T07:30:47;23.00;99.60
17331;DHT22;8783;52.448;4.638;2022-07-03T07:33:13;23.00;99.80
17331;DHT22;8783;52.448;4.638;2022-07-03T07:35:39;23.00;99.70
17331;DHT22;8783;52.448;4.638;2022-07-03T07:38:05;23.40;99.30
17331;DHT22;8783;52.448;4.638;2022-07-03T07:40:30;23.70;98.80
17331;DHT22;8783;52.448;4.638;2022-07-03T07:42:56;23.90;98.60
17331;DHT22;8783;52.448;4.638;2022-07-03T07:45:22;24.10;98.10
17331;DHT22;8783;52.448;4.638;2022-07-03T07:47:47;24.20;97.70
17331;DHT22;8783;52.448;4.638;2022-07-03T07:50:15;24.40;97.50
17331;DHT22;8783;52.448;4.638;2022-07-03T07:52:41;24.50;97.20
17331;DHT22;8783;52.448;4.638;2022-07-03T07:55:08;24.60;96.90
17331;DHT22;8783;52.448;4.638;2022-07-03T07:57:38;24.70;96.80
17331;DHT22;8783;52.448;4.638;2022-07-03T08:02:33;24.80;96.30
17331;DHT22;8783;52.448;4.638;2022-07-03T08:05:17;24.90;96.40
17331;DHT22;8783;52.448;4.638;2022-07-03T08:10:39;24.80;95.90
17331;DHT22;8783;52.448;4.638;2022-07-03T08:13:06;24.80;96.00
17331;DHT22;8783;52.448;4.638;2022-07-03T08:15:33;24.80;96.40
17331;DHT22;8783;52.448;4.638;2022-07-03T08:17:59;24.90;95.90
17331;DHT22;8783;52.448;4.638;2022-07-03T08:20:25;24.90;96.00
17331;DHT22;8783;52.448;4.638;2022-07-03T08:22:50;24.90;95.90
17331;DHT22;8783;52.448;4.638;2022-07-03T08:25:16;24.90;96.10
17331;DHT22;8783;52.448;4.638;2022-07-03T08:27:42;24.90;96.30
17331;DHT22;8783;52.448;4.638;2022-07-03T08:30:08;24.90;96.10
17331;DHT22;8783;52.448;4.638;2022-07-03T08:32:33;24.90;96.50
17331;DHT22;8783;52.448;4.638;2022-07-03T08:35:02;25.00;96.10
17331;DHT22;8783;52.448;4.638;2022-07-03T08:37:31;25.00;95.70
17331;DHT22;8783;52.448;4.638;2022-07-03T08:39:56;25.10;95.90
17331;DHT22;8783;52.448;4.638;2022-07-03T08:42:24;25.10;96.20
17331;DHT22;8783;52.448;4.638;2022-07-03T08:44:50;25.10;95.90
17331;DHT22;8783;52.448;4.638;2022-07-03T08:47:17;25.10;96.00
17331;DHT22;8783;52.448;4.638;2022-07-03T08:49:44;25.10;96.20
17331;DHT22;8783;52.448;4.638;2022-07-03T08:52:10;25.00;96.00
17331;DHT22;8783;52.448;4.638;2022-07-03T08:54:37;25.10;96.10
17331;DHT22;8783;52.448;4.638;2022-07-03T08:57:03;25.00;95.70
17331;DHT22;8783;52.448;4.638;2022-07-03T08:59:36;24.90;95.50
17331;DHT22;8783;52.448;4.638;2022-07-03T09:02:03;24.80;95.70
17331;DHT22;8783;52.448;4.638;2022-07-03T09:04:31;24.90;95.40
17331;DHT22;8783;52.448;4.638;2022-07-03T09:06:57;24.80;95.60
17331;DHT22;8783;52.448;4.638;2022-07-03T09:09:24;24.70;95.20
17331;DHT22;8783;52.448;4.638;2022-07-03T09:11:50;24.70;95.50
17331;DHT22;8783;52.448;4.638;2022-07-03T09:14:17;24.70;95.60
17331;DHT22;8783;52.448;4.638;2022-07-03T09:16:42;24.60;95.50
17331;DHT22;8783;52.448;4.638;2022-07-03T09:19:08;24.60;95.40
17331;DHT22;8783;52.448;4.638;2022-07-03T09:21:38;24.50;95.30
17331;DHT22;8783;52.448;4.638;2022-07-03T09:24:05;24.50;95.10
17331;DHT22;8783;52.448;4.638;2022-07-03T09:26:32;24.50;95.40
17331;DHT22;8783;52.448;4.638;2022-07-03T09:28:57;24.60;95.70
17331;DHT22;8783;52.448;4.638;2022-07-03T09:31:25;24.70;95.40
17331;DHT22;8783;52.448;4.638;2022-07-03T09:34:02;24.70;95.70
17331;DHT22;8783;52.448;4.638;2022-07-03T09:36:48;24.70;95.60
17331;DHT22;8783;52.448;4.638;2022-07-03T09:42:00;24.80;95.30
17331;DHT22;8783;52.448;4.638;2022-07-03T09:44:37;24.80;95.10
17331;DHT22;8783;52.448;4.638;2022-07-03T09:47:23;24.90;94.90
17331;DHT22;8783;52.448;4.638;2022-07-03T09:49:57;24.90;94.90
17331;DHT22;8783;52.448;4.638;2022-07-03T09:52:33;25.00;95.00
17331;DHT22;8783;52.448;4.638;2022-07-03T09:55:18;24.90;94.80
17331;DHT22;8783;52.448;4.638;2022-07-03T10:05:43;25.10;95.20
17331;DHT22;8783;52.448;4.638;2022-07-03T10:08:15;25.00;94.90
17331;DHT22;8783;52.448;4.638;2022-07-03T10:10:46;24.90;95.00
17331;DHT22;8783;52.448;4.638;2022-07-03T10:13:13;24.90;95.30
17331;DHT22;8783;52.448;4.638;2022-07-03T10:15:40;24.90;95.60
17331;DHT22;8783;52.448;4.638;2022-07-03T10:18:09;24.90;95.30
17331;DHT22;8783;52.448;4.638;2022-07-03T10:20:46;24.90;95.20
17331;DHT22;8783;52.448;4.638;2022-07-03T10:23:11;24.90;94.80
17331;DHT22;8783;52.448;4.638;2022-07-03T10:25:42;24.90;95.50
17331;DHT22;8783;52.448;4.638;2022-07-03T10:28:09;25.00;95.20
17331;DHT22;8783;52.448;4.638;2022-07-03T10:30:36;25.00;94.90
17331;DHT22;8783;52.448;4.638;2022-07-03T10:33:02;25.10;95.20
17331;DHT22;8783;52.448;4.638;2022-07-03T10:35:34;25.10;94.80
17331;DHT22;8783;52.448;4.638;2022-07-03T10:40:43;25.00;95.10
17331;DHT22;8783;52.448;4.638;2022-07-03T10:43:39;25.10;95.00
17331;DHT22;8783;52.448;4.638;2022-07-03T10:46:24;25.30;94.80
17331;DHT22;8783;52.448;4.638;2022-07-03T10:51:22;25.40;93.80
17331;DHT22;8783;52.448;4.638;2022-07-03T10:53:48;25.40;93.70
17331;DHT22;8783;52.448;4.638;2022-07-03T10:56:14;25.30;93.60
17331;DHT22;8783;52.448;4.638;2022-07-03T10:58:58;25.30;94.30
17331;DHT22;8783;52.448;4.638;2022-07-03T11:01:31;25.30;94.30
17331;DHT22;8783;52.448;4.638;2022-07-03T11:04:01;25.30;94.10
17331;DHT22;8783;52.448;4.638;2022-07-03T11:09:18;25.30;94.40
17331;DHT22;8783;52.448;4.638;2022-07-03T11:11:46;25.30;94.30
17331;DHT22;8783;52.448;4.638;2022-07-03T11:14:23;25.20;94.60
17331;DHT22;8783;52.448;4.638;2022-07-03T11:16:49;25.20;94.50
17331;DHT22;8783;52.448;4.638;2022-07-03T11:19:34;25.10;94.10
17331;DHT22;8783;52.448;4.638;2022-07-03T11:22:04;25.10;94.60
17331;DHT22;8783;52.448;4.638;2022-07-03T11:24:39;25.00;94.90
17331;DHT22;8783;52.448;4.638;2022-07-03T11:27:18;25.00;95.30
17331;DHT22;8783;52.448;4.638;2022-07-03T11:29:49;24.90;95.10
17331;DHT22;8783;52.448;4.638;2022-07-03T11:32:45;24.90;95.20
17331;DHT22;8783;52.448;4.638;2022-07-03T11:35:48;25.00;94.90
17331;DHT22;8783;52.448;4.638;2022-07-03T11:38:15;25.10;95.40
17331;DHT22;8783;52.448;4.638;2022-07-03T11:40:42;25.10;95.10
17331;DHT22;8783;52.448;4.638;2022-07-03T11:43:12;25.20;95.10
17331;DHT22;8783;52.448;4.638;2022-07-03T11:45:39;25.20;95.40
17331;DHT22;8783;52.448;4.638;2022-07-03T11:48:07;25.30;95.10
17331;DHT22;8783;52.448;4.638;2022-07-03T11:50:37;25.30;94.70
17331;DHT22;8783;52.448;4.638;2022-07-03T11:58:19;25.30;94.00
17331;DHT22;8783;52.448;4.638;2022-07-03T12:00:47;25.30;93.70
17331;DHT22;8783;52.448;4.638;2022-07-03T12:03:32;25.40;94.20
17331;DHT22;8783;52.448;4.638;2022-07-03T12:05:58;25.60;94.60
17331;DHT22;8783;52.448;4.638;2022-07-03T12:08:31;25.60;94.10
17331;DHT22;8783;52.448;4.638;2022-07-03T12:11:09;25.60;94.40
17331;DHT22;8783;52.448;4.638;2022-07-03T12:13:35;25.50;94.90
17331;DHT22;8783;52.448;4.638;2022-07-03T12:16:05;25.50;94.10
17331;DHT22;8783;52.448;4.638;2022-07-03T12:18:50;25.50;94.40
17331;DHT22;8783;52.448;4.638;2022-07-03T12:21:22;25.40;94.60
17331;DHT22;8783;52.448;4.638;2022-07-03T12:23:52;25.40;95.30
17331;DHT22;8783;52.448;4.638;2022-07-03T12:26:35;25.40;95.10
17331;DHT22;8783;52.448;4.638;2022-07-03T12:29:04;25.40;94.90
17331;DHT22;8783;52.448;4.638;2022-07-03T12:31:31;25.50;94.40
17331;DHT22;8783;52.448;4.638;2022-07-03T12:33:58;25.50;94.30
17331;DHT22;8783;52.448;4.638;2022-07-03T12:36:24;25.50;94.20
17331;DHT22;8783;52.448;4.638;2022-07-03T12:38:54;25.60;94.10
17331;DHT22;8783;52.448;4.638;2022-07-03T12:41:21;25.60;94.10
17331;DHT22;8783;52.448;4.638;2022-07-03T12:43:48;25.70;94.20
17331;DHT22;8783;52.448;4.638;2022-07-03T12:46:19;25.70;94.50
17331;DHT22;8783;52.448;4.638;2022-07-03T12:48:58;25.80;94.60
17331;DHT22;8783;52.448;4.638;2022-07-03T12:51:40;25.70;94.60
17331;DHT22;8783;52.448;4.638;2022-07-03T12:54:07;25.60;94.70
17331;DHT22;8783;52.448;4.638;2022-07-03T12:56:33;25.60;95.00
17331;DHT22;8783;52.448;4.638;2022-07-03T12:58:59;25.60;95.00
17331;DHT22;8783;52.448;4.638;2022-07-03T13:02:03;25.60;94.70
17331;DHT22;8783;52.448;4.638;2022-07-03T13:04:34;25.60;94.40
17331;DHT22;8783;52.448;4.638;2022-07-03T13:07:01;25.70;94.70
17331;DHT22;8783;52.448;4.638;2022-07-03T13:09:27;25.70;94.60
17331;DHT22;8783;52.448;4.638;2022-07-03T13:11:53;25.70;94.60
17331;DHT22;8783;52.448;4.638;2022-07-03T13:14:18;25.60;94.90
17331;DHT22;8783;52.448;4.638;2022-07-03T13:16:49;25.60;94.80
17331;DHT22;8783;52.448;4.638;2022-07-03T13:19:19;25.60;94.90
17331;DHT22;8783;52.448;4.638;2022-07-03T13:21:45;25.40;95.00
17331;DHT22;8783;52.448;4.638;2022-07-03T13:24:13;25.40;95.10
17331;DHT22;8783;52.448;4.638;2022-07-03T13:26:39;25.40;95.20
17331;DHT22;8783;52.448;4.638;2022-07-03T13:29:05;25.50;95.20
17331;DHT22;8783;52.448;4.638;2022-07-03T13:31:31;25.50;95.20
17331;DHT22;8783;52.448;4.638;2022-07-03T13:33:57;25.50;95.10
17331;DHT22;8783;52.448;4.638;2022-07-03T13:36:27;25.40;95.10
17331;DHT22;8783;52.448;4.638;2022-07-03T13:38:53;25.30;95.30
17331;DHT22;8783;52.448;4.638;2022-07-03T13:41:19;25.40;95.30
17331;DHT22;8783;52.448;4.638;2022-07-03T13:43:47;25.50;95.50
17331;DHT22;8783;52.448;4.638;2022-07-03T13:46:14;25.60;95.40
17331;DHT22;8783;52.448;4.638;2022-07-03T13:48:40;25.60;95.20
17331;DHT22;8783;52.448;4.638;2022-07-03T13:51:06;25.60;95.00
17331;DHT22;8783;52.448;4.638;2022-07-03T13:53:33;25.20;95.40
17331;DHT22;8783;52.448;4.638;2022-07-03T13:55:59;24.80;95.90
17331;DHT22;8783;52.448;4.638;2022-07-03T13:58:25;24.70;95.80
17331;DHT22;8783;52.448;4.638;2022-07-03T14:00:52;24.50;95.90
17331;DHT22;8783;52.448;4.638;2022-07-03T14:03:17;24.40;96.10
17331;DHT22;8783;52.448;4.638;2022-07-03T14:05:43;24.30;96.20
17331;DHT22;8783;52.448;4.638;2022-07-03T14:08:09;24.20;96.60
17331;DHT22;8783;52.448;4.638;2022-07-03T14:10:35;24.20;96.50
17331;DHT22;8783;52.448;4.638;2022-07-03T14:13:00;24.20;96.80
17331;DHT22;8783;52.448;4.638;2022-07-03T14:15:26;24.20;96.80
17331;DHT22;8783;52.448;4.638;2022-07-03T14:17:52;24.10;97.00
17331;DHT22;8783;52.448;4.638;2022-07-03T14:20:17;24.10;97.00
17331;DHT22;8783;52.448;4.638;2022-07-03T14:22:43;24.00;97.20
17331;DHT22;8783;52.448;4.638;2022-07-03T14:25:09;24.00;97.20
17331;DHT22;8783;52.448;4.638;2022-07-03T14:27:35;23.90;97.50
17331;DHT22;8783;52.448;4.638;2022-07-03T14:30:20;23.80;97.50
17331;DHT22;8783;52.448;4.638;2022-07-03T14:33:04;23.80;97.50
17331;DHT22;8783;52.448;4.638;2022-07-03T14:35:30;23.80;97.30
17331;DHT22;8783;52.448;4.638;2022-07-03T14:37:56;23.70;97.50
17331;DHT22;8783;52.448;4.638;2022-07-03T14:40:21;23.70;97.70
17331;DHT22;8783;52.448;4.638;2022-07-03T14:42:47;23.70;97.70
17331;DHT22;8783;52.448;4.638;2022-07-03T14:45:13;23.70;97.80
17331;DHT22;8783;52.448;4.638;2022-07-03T14:47:38;23.60;97.60
17331;DHT22;8783;52.448;4.638;2022-07-03T14:50:04;23.60;97.70
17331;DHT22;8783;52.448;4.638;2022-07-03T14:52:30;23.60;97.70
17331;DHT22;8783;52.448;4.638;2022-07-03T14:54:57;23.70;97.80
17331;DHT22;8783;52.448;4.638;2022-07-03T15:00:15;23.70;97.90
17331;DHT22;8783;52.448;4.638;2022-07-03T15:05:27;23.60;97.80
17331;DHT22;8783;52.448;4.638;2022-07-03T15:10:38;23.60;97.90
17331;DHT22;8783;52.448;4.638;2022-07-03T15:13:05;23.60;98.00
17331;DHT22;8783;52.448;4.638;2022-07-03T15:15:32;23.60;97.80
17331;DHT22;8783;52.448;4.638;2022-07-03T15:17:59;23.50;97.80
17331;DHT22;8783;52.448;4.638;2022-07-03T15:20:34;23.60;97.80
17331;DHT22;8783;52.448;4.638;2022-07-03T15:23:01;23.50;97.70
17331;DHT22;8783;52.448;4.638;2022-07-03T15:25:29;23.50;98.00
17331;DHT22;8783;52.448;4.638;2022-07-03T15:27:56;23.50;98.00
17331;DHT22;8783;52.448;4.638;2022-07-03T15:30:22;23.50;98.00
17331;DHT22;8783;52.448;4.638;2022-07-03T15:32:49;23.50;98.10
17331;DHT22;8783;52.448;4.638;2022-07-03T15:35:16;23.40;98.10
17331;DHT22;8783;52.448;4.638;2022-07-03T15:40:56;23.40;98.20
17331;DHT22;8783;52.448;4.638;2022-07-03T15:46:27;23.50;98.20
17331;DHT22;8783;52.448;4.638;2022-07-03T15:54:00;23.50;98.20
17331;DHT22;8783;52.448;4.638;2022-07-03T15:56:31;23.50;98.10
17331;DHT22;8783;52.448;4.638;2022-07-03T15:59:04;23.50;98.30
17331;DHT22;8783;52.448;4.638;2022-07-03T16:01:36;23.50;98.70
17331;DHT22;8783;52.448;4.638;2022-07-03T16:04:28;23.50;98.30
17331;DHT22;8783;52.448;4.638;2022-07-03T16:06:55;23.50;98.30
17331;DHT22;8783;52.448;4.638;2022-07-03T16:09:21;23.50;98.20
17331;DHT22;8783;52.448;4.638;2022-07-03T16:11:48;23.40;98.10
17331;DHT22;8783;52.448;4.638;2022-07-03T16:14:14;23.40;98.10
17331;DHT22;8783;52.448;4.638;2022-07-03T16:16:43;23.40;98.20
17331;DHT22;8783;52.448;4.638;2022-07-03T16:19:11;23.40;98.00
17331;DHT22;8783;52.448;4.638;2022-07-03T16:21:37;23.30;98.00
17331;DHT22;8783;52.448;4.638;2022-07-03T16:24:07;23.40;98.20
17331;DHT22;8783;52.448;4.638;2022-07-03T16:26:35;23.40;98.10
17331;DHT22;8783;52.448;4.638;2022-07-03T16:29:01;23.40;98.20
17331;DHT22;8783;52.448;4.638;2022-07-03T16:31:33;23.40;98.20
17331;DHT22;8783;52.448;4.638;2022-07-03T16:36:47;23.40;98.00
17331;DHT22;8783;52.448;4.638;2022-07-03T16:39:16;23.40;98.00
17331;DHT22;8783;52.448;4.638;2022-07-03T16:41:44;23.30;98.00
17331;DHT22;8783;52.448;4.638;2022-07-03T16:44:13;23.30;98.20
17331;DHT22;8783;52.448;4.638;2022-07-03T16:46:44;23.30;98.00
17331;DHT22;8783;52.448;4.638;2022-07-03T16:49:12;23.30;98.10
17331;DHT22;8783;52.448;4.638;2022-07-03T16:51:41;23.30;97.90
17331;DHT22;8783;52.448;4.638;2022-07-03T16:54:08;23.20;97.90
17331;DHT22;8783;52.448;4.638;2022-07-03T16:56:34;23.20;98.10
17331;DHT22;8783;52.448;4.638;2022-07-03T16:59:01;23.30;98.30
17331;DHT22;8783;52.448;4.638;2022-07-03T17:01:28;23.30;98.20
17331;DHT22;8783;52.448;4.638;2022-07-03T17:03:55;23.30;98.30
17331;DHT22;8783;52.448;4.638;2022-07-03T17:06:21;23.30;98.30
17331;DHT22;8783;52.448;4.638;2022-07-03T17:08:48;23.30;98.40